Missoula, MT (59801)

8:54 PM MDT on March 27, 2015 (GMT -0600)
Franklin to the Fort | | Change Station
CLOSE
Current Station
Personal Weather Station
Location: Missoula, MT
Elevation: 3200 ft
Nearby Weather Stations
Active Advisory: Wind Advisory Active Notice: Record Report

Elev 3200 ft 46.86 °N, 114.02 °W | Updated 11 days ago

Clear
Clear
57 °F
Feels Like 57 °F
N
4
Wind Variable Wind from NE
Gusts mph

Today
High -- | Low -- °F
--% Chance of Precip.
Yesterday
High -- | Low -- °F
Precip. -- in
7:25 AM 7:58 PM
First Quarter, 58% visible
Pressure 29.98 in
Visibility 10.0 miles
Clouds Clear
Dew Point 39 °F
Humidity 50%
Rainfall in
Snow Depth Not available.
UV 0 out of 12
Pollen 6.30 out of 12
Air Quality Not available.
Flu Activity Not available.
METAR KMSO 280153Z 31004KT 10SM CLR 17/06 A2995 RMK AO2 SLP150 T01670061

More Conditions Fewer Conditions

Pressure 29.98 in
Visibility 10.0 miles
Clouds Clear
Dew Point 39 °F
Humidity 50%
Rainfall in
Snow Depth Not available.
UV 0 out of 12
Pollen 6.30 out of 12
Air Quality Not available.
Flu Activity Not available.
METAR KMSO 280153Z 31004KT 10SM CLR 17/06 A2995 RMK AO2 SLP150 T01670061

More Conditions Fewer Conditions

10-Day Weather Forecast

Almanac

Astronomy

Mar. 27, 2015 Rise Set
Actual Time
Civil Twilight
Nautical Twilight
Astronomical Twilight
Moon
Length of Visible Light
Length of Day
Tomorrow will be .
, % of the Moon is Illuminated

Today's Extremes

State Highs State Lows

Community

WunderPhotos

Upload Photos

1,808,916 photos uploaded!

WunderBlogs® & News

Nearby

Air Quality

  Air Quality AQ Index Pollutant
Not available.

Snow Depth

Station Depth Elevation

Earthquake Activity

City Distance Mag. Time & Date
Minimum magnitude displayed is 2.5.

Coastal Water Temperatures

Place Temperature

Stations

Nearby Weather Stations

Station Location Temp. Windchill Dew Point Humidity Wind Precip. Elev Updated Type
                   
Wind Advisory
Statement as of 9:46 AM MDT on March 27, 2015

... Wind Advisory in effect from 9 am to 9 PM MDT Saturday...

The National Weather Service in Missoula has issued a Wind
Advisory... which is in effect from 9 am to 9 PM MDT Saturday.

* Impacts/timing: a vigorous cold front will cause gusty, strong
winds to occur throughout the day Saturday, impacting those
with outdoor plans or those traveling in high profile vehicles.

* Winds: sustained west winds of 20 to 30 mph with gusts to 40
mph. Brief, intermittent gusts to 50 mph possible, especially
in higher terrain.

* Locations impacted include... Bitterroot valley... Missoula...
Highway 93 Sula to Lost Trail Pass... Lolo Pass

Precautionary/preparedness actions...

A Wind Advisory means that winds of 35 mph are expected. Winds
this strong can make driving difficult... especially for high
profile vehicles. Use extra caution.